Terminal Aerodrome Forecast
Issued by NWS

Home | Current Version | Previous Version | Text Only | Print | Product List | Glossary Off
Versions: 1 2 3 4 5 6 7 8 9 10 11 12 13 14 15

476
FTUS43 KBIS 242036 AAA
TAFJMS
TAF AMD
KJMS 242036Z 2421/2518 19012KT P6SM OVC023
     FM250000 18011KT P6SM VCTS SCT090CB
     FM250300 21008KT P6SM SCT100
     FM251100 29018G27KT P6SM OVC015=

USA.gov is the U.S. government's official web portal to all federal, state and local government web resources and services.